createdAt,value
2023-04-12T00:00:07.077Z,1.17
2023-04-12T00:02:36.272Z,1.20
2023-04-12T00:05:03.840Z,0.82
2023-04-12T00:07:31.114Z,1.33
2023-04-12T00:09:58.341Z,0.63
2023-04-12T00:12:25.303Z,0.80
2023-04-12T00:14:52.319Z,2.47
2023-04-12T00:17:19.805Z,1.20
2023-04-12T00:19:48.205Z,1.67
2023-04-12T00:22:15.466Z,0.70
2023-04-12T00:24:42.031Z,2.03
2023-04-12T00:27:09.142Z,0.85
2023-04-12T00:29:36.310Z,0.57
2023-04-12T00:32:04.418Z,1.42
2023-04-12T00:34:31.508Z,1.10
2023-04-12T00:36:58.527Z,0.63
2023-04-12T00:39:27.087Z,1.02
2023-04-12T00:41:54.098Z,0.98
2023-04-12T00:44:21.393Z,1.23
2023-04-12T00:46:48.522Z,1.13
2023-04-12T00:49:15.955Z,1.13
2023-04-12T00:51:43.022Z,0.77
2023-04-12T00:54:10.362Z,0.70
2023-04-12T00:56:37.428Z,2.10
2023-04-12T00:59:04.470Z,0.60
2023-04-12T01:01:32.488Z,0.57
2023-04-12T01:04:01.658Z,1.33
2023-04-12T01:06:34.860Z,1.42
2023-04-12T01:09:08.670Z,1.25
2023-04-12T01:14:22.849Z,0.95
2023-04-12T01:16:55.586Z,1.27
2023-04-12T01:19:46.604Z,1.00
2023-04-12T01:22:16.584Z,0.93
2023-04-12T01:25:04.249Z,0.60
2023-04-12T01:27:51.629Z,0.93
2023-04-12T01:30:20.005Z,1.00
2023-04-12T01:32:48.873Z,0.95
2023-04-12T01:35:16.658Z,1.27
2023-04-12T01:37:44.359Z,0.75
2023-04-12T01:40:12.628Z,0.65
2023-04-12T01:42:40.281Z,2.88
2023-04-12T01:45:07.753Z,1.52
2023-04-12T01:47:35.045Z,2.00
2023-04-12T01:50:04.895Z,1.85
2023-04-12T01:52:32.832Z,0.80
2023-04-12T01:55:02.194Z,1.48
2023-04-12T01:57:29.608Z,0.95
2023-04-12T01:59:57.413Z,1.85
2023-04-12T02:02:25.025Z,0.80
2023-04-12T02:04:52.858Z,1.88
2023-04-12T02:07:21.024Z,0.90
2023-04-12T02:09:47.959Z,1.73
2023-04-12T02:12:14.988Z,2.50
2023-04-12T02:14:41.953Z,1.92
2023-04-12T02:17:09.139Z,1.02
2023-04-12T02:19:36.100Z,0.80
2023-04-12T02:22:03.178Z,2.13
2023-04-12T02:24:30.167Z,1.85
2023-04-12T02:26:58.661Z,1.10
2023-04-12T02:29:26.311Z,2.08
2023-04-12T02:31:53.677Z,1.80
2023-04-12T02:34:21.856Z,1.40
2023-04-12T02:36:49.178Z,1.73
2023-04-12T02:39:19.186Z,1.25
2023-04-12T02:41:46.575Z,1.33
2023-04-12T02:44:13.666Z,1.85
2023-04-12T02:46:40.636Z,1.33
2023-04-12T02:49:08.241Z,2.00
2023-04-12T02:51:35.778Z,1.83
2023-04-12T02:54:02.965Z,2.30
2023-04-12T02:56:30.416Z,1.80
2023-04-12T02:58:57.643Z,3.65
2023-04-12T03:01:24.708Z,1.58
2023-04-12T03:03:51.786Z,1.23
2023-04-12T03:06:18.850Z,1.27
2023-04-12T03:08:45.512Z,2.60
2023-04-12T03:11:12.595Z,1.48
2023-04-12T03:13:39.497Z,3.55
2023-04-12T03:16:20.551Z,2.03
2023-04-12T03:18:47.701Z,2.45
2023-04-12T03:21:14.712Z,1.63
2023-04-12T03:23:41.715Z,3.85
2023-04-12T03:26:09.251Z,2.40
2023-04-12T03:28:36.376Z,2.13
2023-04-12T03:31:03.486Z,3.80
2023-04-12T03:33:30.690Z,4.65
2023-04-12T03:35:57.664Z,4.32
2023-04-12T03:38:25.008Z,4.45
2023-04-12T03:40:51.944Z,3.30
2023-04-12T03:43:18.923Z,3.97
2023-04-12T03:45:45.964Z,3.30
2023-04-12T03:48:12.990Z,3.25
2023-04-12T03:50:44.824Z,3.60
2023-04-12T03:53:12.005Z,5.07
2023-04-12T03:55:39.075Z,4.15
2023-04-12T03:58:06.114Z,3.92
2023-04-12T04:00:33.207Z,3.17
2023-04-12T04:03:03.772Z,3.55
2023-04-12T04:05:31.551Z,3.85
2023-04-12T04:08:02.813Z,4.65
2023-04-12T04:10:29.876Z,4.10
2023-04-12T04:12:56.914Z,4.43
2023-04-12T04:15:25.410Z,4.80
2023-04-12T04:17:52.790Z,4.35
2023-04-12T04:20:20.203Z,5.13
2023-04-12T04:22:48.604Z,4.20
2023-04-12T04:25:15.845Z,6.28
2023-04-12T04:27:45.222Z,6.40
2023-04-12T04:30:12.939Z,5.75
2023-04-12T04:32:40.065Z,5.32
2023-04-12T04:35:07.366Z,7.47
2023-04-12T04:37:35.944Z,11.43
2023-04-12T04:40:08.938Z,6.40
2023-04-12T04:42:37.023Z,7.75
2023-04-12T04:45:04.880Z,7.22
2023-04-12T04:47:31.858Z,6.68
2023-04-12T04:50:00.364Z,6.72
2023-04-12T04:52:27.408Z,7.28
2023-04-12T04:54:58.038Z,8.52
2023-04-12T04:57:25.386Z,7.50
2023-04-12T04:59:52.360Z,9.00
2023-04-12T05:02:19.380Z,9.43
2023-04-12T05:04:46.586Z,9.02
2023-04-12T05:07:14.767Z,10.23
2023-04-12T05:09:41.859Z,12.00
2023-04-12T05:12:08.937Z,10.30
2023-04-12T05:14:46.792Z,10.13
2023-04-12T05:17:14.961Z,11.10
2023-04-12T05:19:44.144Z,12.45
2023-04-12T05:22:11.461Z,13.20
2023-04-12T05:24:38.431Z,13.55
2023-04-12T05:27:05.546Z,13.80
2023-04-12T05:29:32.622Z,15.75
2023-04-12T05:31:59.923Z,13.88
2023-04-12T05:34:26.901Z,16.75
2023-04-12T05:37:03.520Z,14.93
2023-04-12T05:39:30.651Z,17.50
2023-04-12T05:41:57.371Z,19.33
2023-04-12T05:44:23.948Z,16.63
2023-04-12T05:46:52.548Z,20.55
2023-04-12T05:49:23.212Z,19.23
2023-04-12T05:51:51.497Z,15.20
2023-04-12T05:54:21.713Z,16.63
2023-04-12T05:56:52.433Z,18.95
2023-04-12T05:59:21.188Z,20.20
2023-04-12T06:01:49.369Z,19.17
2023-04-12T06:04:17.784Z,19.50
2023-04-12T06:06:48.187Z,20.98
2023-04-12T06:09:20.074Z,19.80
2023-04-12T06:11:47.595Z,18.02
2023-04-12T06:14:15.485Z,16.80
2023-04-12T06:16:43.712Z,16.83
2023-04-12T06:19:12.021Z,18.58
2023-04-12T06:21:39.890Z,17.00
2023-04-12T06:24:08.918Z,17.17
2023-04-12T06:26:39.710Z,17.05
2023-04-12T06:29:10.861Z,20.38
2023-04-12T06:31:39.676Z,17.25
2023-04-12T06:34:08.530Z,18.00
2023-04-12T06:36:36.371Z,17.85
2023-04-12T06:39:04.244Z,17.75
2023-04-12T06:41:32.052Z,17.13
2023-04-12T06:43:59.920Z,18.00
2023-04-12T06:46:28.676Z,18.08
2023-04-12T06:48:57.220Z,31.52
2023-04-12T06:51:25.546Z,18.73
2023-04-12T06:53:53.511Z,18.23
2023-04-12T06:56:22.289Z,18.65
2023-04-12T06:58:50.231Z,15.65
2023-04-12T07:01:18.891Z,16.55
2023-04-12T07:03:47.933Z,16.67
2023-04-12T07:06:25.080Z,33.15
2023-04-12T07:08:54.338Z,21.95
2023-04-12T07:11:23.502Z,23.08
2023-04-12T07:13:52.850Z,15.32
2023-04-12T07:16:20.679Z,15.82
2023-04-12T07:18:49.015Z,16.17
2023-04-12T07:21:18.962Z,14.60
2023-04-12T07:23:48.537Z,12.82
2023-04-12T07:26:16.398Z,13.65
2023-04-12T07:28:44.146Z,15.95
2023-04-12T07:31:10.874Z,13.60
2023-04-12T07:33:41.413Z,13.90
2023-04-12T07:36:11.920Z,13.43
2023-04-12T07:38:40.584Z,13.88
2023-04-12T07:41:07.518Z,13.23
2023-04-12T07:43:34.399Z,14.68
2023-04-12T07:46:05.270Z,14.15
2023-04-12T07:48:33.199Z,16.63
2023-04-12T07:51:01.258Z,15.45
2023-04-12T07:53:29.056Z,16.48
2023-04-12T07:55:57.226Z,15.88
2023-04-12T07:58:25.890Z,15.68
2023-04-12T08:00:54.764Z,13.27
2023-04-12T08:03:23.777Z,13.18
2023-04-12T08:05:54.690Z,13.70
2023-04-12T08:08:25.970Z,15.73
2023-04-12T08:10:54.016Z,14.77
2023-04-12T08:13:22.594Z,21.25
2023-04-12T08:15:50.406Z,16.73
2023-04-12T08:18:24.602Z,20.98
2023-04-12T08:20:53.316Z,16.48
2023-04-12T08:23:21.050Z,13.07
2023-04-12T08:25:49.156Z,14.85
2023-04-12T08:28:17.926Z,15.57
2023-04-12T08:30:45.672Z,16.10
2023-04-12T08:33:13.552Z,12.60
2023-04-12T08:35:42.021Z,12.82
2023-04-12T08:38:12.570Z,10.18
2023-04-12T08:40:43.280Z,10.23
2023-04-12T08:43:12.996Z,10.88
2023-04-12T08:45:42.008Z,10.68
2023-04-12T08:48:10.639Z,10.77
2023-04-12T08:50:38.736Z,14.40
2023-04-12T08:53:06.306Z,17.75
2023-04-12T08:55:34.999Z,12.93
2023-04-12T08:58:08.231Z,13.15
2023-04-12T09:00:38.273Z,12.48
2023-04-12T09:03:06.465Z,9.05
2023-04-12T09:05:34.429Z,8.60
2023-04-12T09:08:03.101Z,10.48
2023-04-12T09:10:32.262Z,10.23
2023-04-12T09:13:10.874Z,9.13
2023-04-12T09:15:52.053Z,10.20
2023-04-12T09:18:19.934Z,9.60
2023-04-12T09:20:47.886Z,11.15
2023-04-12T09:23:37.985Z,10.77
2023-04-12T09:26:06.165Z,14.63
2023-04-12T09:28:34.994Z,13.55
2023-04-12T09:31:05.294Z,10.73
2023-04-12T09:33:39.899Z,11.40
2023-04-12T09:36:09.982Z,11.27
2023-04-12T09:38:38.072Z,10.57
2023-04-12T09:41:26.864Z,11.68
2023-04-12T09:43:55.572Z,10.82
2023-04-12T09:46:23.788Z,7.75
2023-04-12T09:48:52.748Z,10.38
2023-04-12T09:51:34.789Z,9.82
2023-04-12T09:54:03.694Z,10.82
2023-04-12T09:56:33.040Z,10.55
2023-04-12T09:59:05.558Z,11.30
2023-04-12T10:01:42.416Z,11.20
2023-04-12T10:04:10.614Z,13.93
2023-04-12T10:06:38.740Z,10.48
2023-04-12T10:09:07.434Z,11.43
2023-04-12T10:11:35.717Z,11.05
2023-04-12T10:14:04.089Z,15.60
2023-04-12T10:16:36.118Z,11.68
2023-04-12T10:19:05.694Z,16.58
2023-04-12T10:21:33.907Z,11.77
2023-04-12T10:24:01.781Z,16.55
2023-04-12T10:26:30.109Z,12.10
2023-04-12T10:29:26.688Z,17.95
2023-04-12T10:31:58.716Z,13.15
2023-04-12T10:34:30.204Z,12.00
2023-04-12T10:37:02.733Z,14.73
2023-04-12T10:39:43.577Z,12.65
2023-04-12T10:42:39.732Z,14.57
2023-04-12T10:45:26.750Z,15.30
2023-04-12T10:47:55.302Z,13.93
2023-04-12T10:50:25.651Z,14.70
2023-04-12T10:53:13.813Z,17.20
2023-04-12T10:55:41.464Z,15.85
2023-04-12T10:58:09.797Z,16.17
2023-04-12T11:00:56.261Z,14.88
2023-04-12T11:03:30.769Z,13.32
2023-04-12T11:06:24.121Z,16.33
2023-04-12T11:08:55.433Z,15.70
2023-04-12T11:11:23.576Z,14.50
2023-04-12T11:13:54.663Z,17.27
2023-04-12T11:16:21.618Z,13.80
2023-04-12T11:18:49.608Z,16.50
2023-04-12T11:21:17.378Z,15.93
2023-04-12T11:23:45.397Z,17.67
2023-04-12T11:26:13.337Z,16.75
2023-04-12T11:28:41.729Z,14.15
2023-04-12T11:31:10.533Z,13.95
2023-04-12T11:33:40.991Z,13.45
2023-04-12T11:36:10.275Z,23.48
2023-04-12T11:38:38.323Z,21.27
2023-04-12T11:41:10.154Z,26.13
2023-04-12T11:43:39.137Z,24.10
2023-04-12T11:46:07.096Z,15.57
2023-04-12T11:48:35.073Z,18.33
2023-04-12T11:51:19.654Z,23.23
2023-04-12T11:53:48.123Z,21.23
2023-04-12T11:56:16.997Z,17.40
2023-04-12T11:58:47.836Z,17.75
2023-04-12T12:01:20.744Z,13.18
2023-04-12T12:03:52.867Z,15.05
2023-04-12T12:06:23.521Z,14.07
2023-04-12T12:08:53.453Z,15.75
2023-04-12T12:11:22.328Z,11.80
2023-04-12T12:13:56.726Z,14.30
2023-04-12T12:16:25.097Z,12.10
2023-04-12T12:18:53.186Z,11.73
2023-04-12T12:21:22.112Z,9.75
2023-04-12T12:23:50.237Z,9.82
2023-04-12T12:26:24.607Z,10.27
2023-04-12T12:28:53.213Z,9.60
2023-04-12T12:31:21.968Z,12.15
2023-04-12T12:33:49.023Z,12.52
2023-04-12T12:36:21.930Z,11.38
2023-04-12T12:38:54.381Z,12.23
2023-04-12T12:41:26.528Z,14.02
2023-04-12T12:43:54.851Z,18.95
2023-04-12T12:46:22.686Z,11.10
2023-04-12T12:48:50.517Z,8.65
2023-04-12T12:51:18.393Z,9.20
2023-04-12T12:53:46.041Z,8.90
2023-04-12T12:56:14.838Z,7.88
2023-04-12T12:58:45.974Z,6.82
2023-04-12T13:01:13.714Z,6.53
2023-04-12T13:03:41.119Z,6.75
2023-04-12T13:06:12.431Z,7.35
2023-04-12T13:08:41.051Z,7.63
2023-04-12T13:11:09.019Z,8.32
2023-04-12T13:13:38.223Z,11.65
2023-04-12T13:16:07.608Z,7.32
2023-04-12T13:18:40.039Z,8.60
2023-04-12T13:21:07.995Z,8.52
2023-04-12T13:23:36.717Z,7.97
2023-04-12T13:26:05.211Z,10.23
2023-04-12T13:28:34.636Z,8.85
2023-04-12T13:31:02.670Z,8.90
2023-04-12T13:33:30.491Z,9.07
2023-04-12T13:35:58.664Z,11.15
2023-04-12T13:38:28.535Z,14.13
2023-04-12T13:41:00.799Z,14.65
2023-04-12T13:43:28.726Z,14.43
2023-04-12T13:45:57.120Z,12.13
2023-04-12T13:48:26.004Z,14.70
2023-04-12T13:50:55.075Z,13.10
2023-04-12T13:53:23.257Z,14.70
2023-04-12T13:55:51.430Z,10.88
2023-04-12T13:58:19.184Z,10.80
2023-04-12T14:00:48.864Z,10.25
2023-04-12T14:03:17.263Z,11.32
2023-04-12T14:05:44.563Z,10.68
2023-04-12T14:08:14.100Z,9.75
2023-04-12T14:10:41.681Z,9.85
2023-04-12T14:13:19.785Z,8.43
2023-04-12T14:15:50.116Z,8.68
2023-04-12T14:18:23.682Z,8.35
2023-04-12T14:20:53.047Z,11.02
2023-04-12T14:23:21.912Z,10.07
2023-04-12T14:25:50.226Z,8.43
2023-04-12T14:28:21.338Z,8.68
2023-04-12T14:30:51.306Z,7.38
2023-04-12T14:33:20.060Z,10.10
2023-04-12T14:35:50.141Z,9.10
2023-04-12T14:38:22.221Z,7.80
2023-04-12T14:40:50.385Z,11.07
2023-04-12T14:43:17.577Z,9.82
2023-04-12T14:45:47.320Z,9.93
2023-04-12T14:48:14.001Z,9.45
2023-04-12T14:50:42.704Z,10.82
2023-04-12T14:53:10.133Z,8.90
2023-04-12T14:55:37.617Z,10.18
2023-04-12T14:58:05.214Z,11.18
2023-04-12T15:00:35.978Z,8.45
2023-04-12T15:03:10.982Z,8.38
2023-04-12T15:05:42.414Z,10.30
2023-04-12T15:08:09.965Z,11.77
2023-04-12T15:10:38.215Z,9.63
2023-04-12T15:13:07.395Z,9.13
2023-04-12T15:15:37.006Z,8.82
2023-04-12T15:18:05.671Z,9.68
2023-04-12T15:20:34.186Z,8.95
2023-04-12T15:23:02.130Z,9.57
2023-04-12T15:25:31.024Z,8.95
2023-04-12T15:28:02.358Z,9.27
2023-04-12T15:30:29.951Z,9.77
2023-04-12T15:33:05.147Z,10.88
2023-04-12T15:35:32.194Z,9.20
2023-04-12T15:38:00.379Z,11.93
2023-04-12T15:40:28.363Z,9.10
2023-04-12T15:42:58.062Z,12.07
2023-04-12T15:45:28.057Z,11.02
2023-04-12T15:47:59.951Z,9.38
2023-04-12T15:50:26.745Z,11.32
2023-04-12T15:52:56.985Z,9.77
2023-04-12T15:55:24.345Z,12.15
2023-04-12T15:57:53.385Z,11.35
2023-04-12T16:00:24.738Z,9.55
2023-04-12T16:02:54.618Z,11.68
2023-04-12T16:05:22.863Z,11.10
2023-04-12T16:07:53.869Z,13.43
2023-04-12T16:10:24.040Z,15.68
2023-04-12T16:12:52.499Z,13.88
2023-04-12T16:15:22.894Z,10.95
2023-04-12T16:17:56.988Z,12.35
2023-04-12T16:20:24.164Z,13.05
2023-04-12T16:22:56.418Z,11.88
2023-04-12T16:25:25.495Z,12.85
2023-04-12T16:27:53.118Z,12.68
2023-04-12T16:30:23.256Z,11.23
2023-04-12T16:46:51.294Z,12.95
2023-04-12T16:49:19.805Z,13.15
2023-04-12T16:51:47.714Z,13.00
2023-04-12T16:54:14.468Z,19.48
2023-04-12T16:56:42.374Z,24.83
2023-04-12T16:59:10.044Z,22.35
2023-04-12T17:01:37.341Z,20.92
2023-04-12T17:04:04.247Z,14.68
2023-04-12T17:06:34.238Z,11.32
2023-04-12T17:09:01.873Z,13.55
2023-04-12T17:11:29.900Z,11.38
2023-04-12T17:13:57.137Z,16.02
2023-04-12T17:16:24.928Z,16.75
2023-04-12T17:18:51.910Z,15.13
2023-04-12T17:21:20.429Z,20.65
2023-04-12T17:23:50.784Z,17.70
2023-04-12T17:26:19.311Z,58.08
2023-04-12T17:28:46.180Z,77.72
2023-04-12T17:31:13.132Z,39.42
2023-04-12T17:33:39.890Z,39.75
2023-04-12T17:36:11.848Z,39.35
2023-04-12T17:38:41.748Z,37.55
2023-04-12T17:41:10.333Z,38.25
2023-04-12T17:43:38.185Z,20.80
2023-04-12T17:46:07.665Z,22.13
2023-04-12T17:48:34.854Z,19.48
2023-04-12T17:51:03.624Z,29.85
2023-04-12T17:53:30.592Z,48.45
2023-04-12T17:55:58.220Z,38.67
2023-04-12T17:58:25.963Z,33.40
2023-04-12T18:00:53.371Z,31.35
2023-04-12T18:03:20.706Z,29.88
2023-04-12T18:05:47.917Z,23.67
2023-04-12T18:08:17.130Z,15.95
2023-04-12T18:10:44.890Z,14.05
2023-04-12T18:13:12.211Z,14.60
2023-04-12T18:15:39.057Z,13.25
2023-04-12T18:18:07.706Z,13.55
2023-04-12T18:20:34.666Z,39.40
2023-04-12T18:23:01.971Z,17.48
2023-04-12T18:25:30.771Z,11.63
2023-04-12T18:27:57.959Z,9.70
2023-04-12T18:30:24.811Z,14.07
2023-04-12T18:32:52.659Z,16.48
2023-04-12T18:35:19.991Z,15.52
2023-04-12T18:37:48.620Z,16.40
2023-04-12T18:40:16.565Z,14.35
2023-04-12T18:42:46.180Z,15.00
2023-04-12T18:45:13.466Z,42.58
2023-04-12T18:47:41.104Z,48.78
2023-04-12T18:50:08.743Z,64.13
2023-04-12T18:52:37.867Z,103.05
2023-04-12T18:55:05.495Z,126.22
2023-04-12T18:57:34.044Z,99.10
2023-04-12T19:00:00.982Z,113.43
2023-04-12T19:02:28.595Z,97.93
2023-04-12T19:04:55.410Z,109.43
2023-04-12T19:07:22.420Z,109.80
2023-04-12T19:09:49.478Z,94.82
2023-04-12T19:12:16.351Z,55.40
2023-04-12T19:14:43.090Z,67.63
2023-04-12T19:17:09.949Z,76.32
2023-04-12T19:19:36.795Z,64.95
2023-04-12T19:22:03.652Z,50.05
2023-04-12T19:24:30.470Z,49.33
2023-04-12T19:26:57.810Z,38.40
2023-04-12T19:29:25.806Z,25.80
2023-04-12T19:31:54.002Z,20.95
2023-04-12T19:34:20.924Z,24.77
2023-04-12T19:36:47.830Z,27.60
2023-04-12T19:39:20.236Z,25.80
2023-04-12T19:41:49.452Z,20.35
2023-04-12T19:44:16.645Z,26.42
2023-04-12T19:46:43.612Z,30.73
2023-04-12T19:49:10.655Z,27.13
2023-04-12T19:51:38.059Z,33.38
2023-04-12T19:54:05.447Z,28.35
2023-04-12T19:56:32.257Z,27.75
2023-04-12T19:59:00.492Z,22.15
2023-04-12T20:01:27.645Z,22.85
2023-04-12T20:03:55.295Z,22.13
2023-04-12T20:06:22.341Z,23.15
2023-04-12T20:08:49.067Z,32.92
2023-04-12T20:11:16.340Z,48.70
2023-04-12T20:13:43.343Z,49.67
2023-04-12T20:16:10.312Z,57.05
2023-04-12T20:18:37.158Z,49.72
2023-04-12T20:21:06.252Z,46.78
2023-04-12T20:23:37.525Z,47.65
2023-04-12T20:26:05.750Z,40.15
2023-04-12T20:28:34.965Z,34.40
2023-04-12T20:31:01.928Z,33.05
2023-04-12T20:33:29.906Z,30.00
2023-04-12T20:35:56.895Z,31.95
2023-04-12T20:38:24.018Z,31.13
2023-04-12T20:40:52.862Z,29.33
2023-04-12T20:43:20.030Z,32.83
2023-04-12T20:45:54.778Z,25.60
2023-04-12T20:48:22.158Z,26.38
2023-04-12T20:50:50.745Z,31.50
2023-04-12T20:53:17.780Z,33.88
2023-04-12T20:55:45.835Z,42.90
2023-04-12T20:58:12.671Z,49.05
2023-04-12T21:00:39.502Z,42.25
2023-04-12T21:03:06.841Z,42.65
2023-04-12T21:05:33.959Z,44.25
2023-04-12T21:08:00.870Z,46.00
2023-04-12T21:10:28.460Z,54.72
2023-04-12T21:12:55.319Z,53.80
2023-04-12T21:15:22.634Z,55.72
2023-04-12T21:17:51.314Z,49.70
2023-04-12T21:20:19.037Z,51.17
2023-04-12T21:22:48.000Z,49.10
2023-04-12T21:25:16.903Z,42.73
2023-04-12T21:27:47.982Z,43.55
2023-04-12T21:30:15.856Z,36.37
2023-04-12T21:32:44.183Z,33.47
2023-04-12T21:35:11.597Z,30.38
2023-04-12T21:37:39.930Z,25.13
2023-04-12T21:40:13.029Z,27.83
2023-04-12T21:42:41.155Z,23.38
2023-04-12T21:45:10.036Z,29.73
2023-04-12T21:47:40.013Z,28.27
2023-04-12T21:50:08.734Z,27.58
2023-04-12T21:52:38.406Z,25.43
2023-04-12T21:55:08.588Z,29.70
2023-04-12T21:57:41.901Z,31.30
2023-04-12T22:00:10.236Z,27.70
2023-04-12T22:02:37.242Z,26.97
2023-04-12T22:05:16.147Z,26.88
2023-04-12T22:07:42.933Z,27.42
2023-04-12T22:10:10.415Z,28.27
2023-04-12T22:12:37.634Z,28.67
2023-04-12T22:15:05.658Z,31.20
2023-04-12T22:17:32.980Z,26.60
2023-04-12T22:19:59.930Z,30.30
2023-04-12T22:22:30.132Z,33.47
2023-04-12T22:24:57.142Z,31.65
2023-04-12T22:27:26.782Z,31.33
2023-04-12T22:29:53.957Z,31.88
2023-04-12T22:32:20.934Z,28.65
2023-04-12T22:34:54.793Z,29.40
2023-04-12T22:37:28.533Z,26.52
2023-04-12T22:39:55.314Z,29.80
2023-04-12T22:42:26.106Z,27.48
2023-04-12T22:44:55.128Z,26.73
2023-04-12T22:47:21.880Z,23.85
2023-04-12T22:49:50.738Z,26.52
2023-04-12T22:52:17.950Z,26.88
2023-04-12T22:54:45.031Z,23.13
2023-04-12T22:57:12.750Z,31.35
2023-04-12T22:59:39.440Z,26.63
2023-04-12T23:02:07.069Z,25.67
2023-04-12T23:05:05.755Z,27.20
2023-04-12T23:07:33.039Z,26.77
2023-04-12T23:09:59.777Z,25.63
2023-04-12T23:12:26.589Z,25.23
2023-04-12T23:14:55.949Z,23.40
2023-04-12T23:17:22.964Z,24.17
2023-04-12T23:19:54.062Z,26.57
2023-04-12T23:22:48.694Z,25.17
2023-04-12T23:25:24.834Z,25.80
2023-04-12T23:27:52.137Z,22.03
2023-04-12T23:30:19.056Z,22.03
2023-04-12T23:32:46.218Z,27.70
2023-04-12T23:35:14.673Z,23.83
2023-04-12T23:37:43.399Z,28.83
2023-04-12T23:40:15.134Z,25.23
2023-04-12T23:42:43.763Z,31.23
2023-04-12T23:45:10.979Z,24.90
2023-04-12T23:47:38.296Z,22.40
2023-04-12T23:50:07.750Z,31.40
2023-04-12T23:52:34.432Z,21.73
2023-04-12T23:55:02.812Z,25.30
2023-04-12T23:57:30.172Z,22.73
2023-04-12T23:59:57.658Z,24.97
